Time;durP1;ratioP1;P1;durP2;ratioP2;P2;SDS_P1;SDS_P2;PMS_P1;PMS_P2;Temp;Humidity;BMP_temperature;BMP_pressure;BME280_temperature;BME280_humidity;BME280_pressure;Samples;Min_cycle;Max_cycle;Signal;HPM_P1;HPM_P2
2022/05/29 00:00:19;;;;;;;2.40;1.98;;;;;;;;;;4204495;34;20212;-63
2022/05/29 00:02:44;;;;;;;2.40;1.80;;;;;;;;;;4204036;34;20129;-61
2022/05/29 00:34:37;;;;;;;3.62;2.05;;;;;;;;;;4192127;34;20389;-62
2022/05/29 00:37:05;;;;;;;3.30;1.92;;;;;;;;;;4192299;34;20148;-62
2022/05/29 00:39:31;;;;;;;1.85;1.73;;;;;;;;;;4177956;34;20221;-62
2022/05/29 00:41:57;;;;;;;2.97;1.80;;;;;;;;;;4178309;34;20129;-62
2022/05/29 00:44:28;;;;;;;3.92;1.80;;;;;;;;;;4178209;34;20206;-63
2022/05/29 00:46:57;;;;;;;2.20;2.00;;;;;;;;;;4178381;34;20187;-62
2022/05/29 00:49:29;;;;;;;3.83;2.10;;;;;;;;;;4178133;34;20546;-62
2022/05/29 00:52:08;;;;;;;2.45;1.90;;;;;;;;;;4178278;34;20130;-62
2022/05/29 00:54:43;;;;;;;2.05;1.70;;;;;;;;;;4178297;34;20547;-62
2022/05/29 00:57:11;;;;;;;2.53;2.03;;;;;;;;;;4178086;34;20104;-62
2022/05/29 00:59:38;;;;;;;2.30;2.10;;;;;;;;;;4178202;34;20110;-62
2022/05/29 01:02:04;;;;;;;1.85;1.75;;;;;;;;;;4178179;34;20190;-63
2022/05/29 01:04:32;;;;;;;4.22;2.00;;;;;;;;;;4178279;34;20600;-62
2022/05/29 01:07:02;;;;;;;5.32;1.90;;;;;;;;;;4165485;34;20094;-62
2022/05/29 01:09:29;;;;;;;3.80;1.85;;;;;;;;;;4176811;34;20176;-62
2022/05/29 01:12:12;;;;;;;5.40;2.00;;;;;;;;;;4178089;34;20195;-62
2022/05/29 01:14:56;;;;;;;2.42;1.85;;;;;;;;;;4176784;34;20106;-62
2022/05/29 01:17:28;;;;;;;2.15;1.95;;;;;;;;;;4176406;34;20140;-63
2022/05/29 01:19:56;;;;;;;3.78;2.33;;;;;;;;;;4177992;34;20527;-63
2022/05/29 01:22:25;;;;;;;2.45;1.85;;;;;;;;;;4178081;34;20098;-63
2022/05/29 01:25:09;;;;;;;3.08;2.00;;;;;;;;;;4178240;34;20099;-63
2022/05/29 01:28:08;;;;;;;3.17;2.10;;;;;;;;;;4177901;34;20130;-63
2022/05/29 01:30:42;;;;;;;2.17;1.90;;;;;;;;;;4177904;34;20467;-63
2022/05/29 01:33:22;;;;;;;6.15;2.10;;;;;;;;;;4177985;34;20102;-62
2022/05/29 01:35:52;;;;;;;2.20;1.80;;;;;;;;;;4176553;34;20165;-62
2022/05/29 01:38:26;;;;;;;2.42;2.22;;;;;;;;;;4177434;34;20121;-63
2022/05/29 01:41:05;;;;;;;2.37;1.80;;;;;;;;;;4176832;34;20114;-63
2022/05/29 01:43:41;;;;;;;3.67;2.15;;;;;;;;;;4177922;34;20130;-63
2022/05/29 01:46:14;;;;;;;2.95;1.95;;;;;;;;;;4176637;34;20129;-63
2022/05/29 01:48:49;;;;;;;2.60;2.40;;;;;;;;;;4176447;34;20109;-63
2022/05/29 01:51:18;;;;;;;1.83;1.73;;;;;;;;;;4176326;34;20226;-62
2022/05/29 01:53:59;;;;;;;7.90;2.00;;;;;;;;;;4177737;34;20133;-62
2022/05/29 01:56:30;;;;;;;2.10;1.90;;;;;;;;;;4176354;34;20097;-63
2022/05/29 01:59:04;;;;;;;5.12;2.10;;;;;;;;;;4176210;34;20127;-62
2022/05/29 02:01:35;;;;;;;4.30;1.83;;;;;;;;;;4176382;34;20573;-62
2022/05/29 02:04:03;;;;;;;2.30;2.10;;;;;;;;;;4176202;34;20463;-62
2022/05/29 02:09:22;;;;;;;4.07;2.37;;;;;;;;;;4166720;34;20133;-63
2022/05/29 02:11:55;;;;;;;4.07;2.20;;;;;;;;;;4176242;34;20109;-63
2022/05/29 02:14:25;;;;;;;5.68;2.08;;;;;;;;;;4176323;34;20122;-63
2022/05/29 02:16:55;;;;;;;3.47;2.03;;;;;;;;;;4176289;34;20102;-63
2022/05/29 02:19:26;;;;;;;3.05;1.98;;;;;;;;;;4177627;34;20206;-63
2022/05/29 02:22:06;;;;;;;2.67;2.12;;;;;;;;;;4176364;34;20134;-63
2022/05/29 02:24:38;;;;;;;3.53;1.92;;;;;;;;;;4177554;34;20142;-63
2022/05/29 02:27:18;;;;;;;2.30;1.87;;;;;;;;;;4176116;34;20171;-63
2022/05/29 02:29:44;;;;;;;2.30;2.03;;;;;;;;;;4176125;34;20097;-62
2022/05/29 02:32:35;;;;;;;4.72;2.28;;;;;;;;;;4175841;34;20125;-62
2022/05/29 02:35:14;;;;;;;3.42;1.80;;;;;;;;;;4176243;34;20122;-61
2022/05/29 02:37:50;;;;;;;3.35;2.25;;;;;;;;;;4177387;34;20545;-62
2022/05/29 02:40:38;;;;;;;3.10;1.80;;;;;;;;;;4164810;34;20118;-62
2022/05/29 02:43:12;;;;;;;2.00;1.80;;;;;;;;;;4177362;34;20177;-62
2022/05/29 02:45:46;;;;;;;3.90;1.90;;;;;;;;;;4177338;34;20110;-62
2022/05/29 02:48:26;;;;;;;3.90;2.00;;;;;;;;;;4177123;34;20578;-62
2022/05/29 02:51:01;;;;;;;8.13;2.97;;;;;;;;;;4175823;34;20506;-62
2022/05/29 02:53:28;;;;;;;3.97;2.00;;;;;;;;;;4176006;34;20130;-63
2022/05/29 02:55:54;;;;;;;2.05;1.70;;;;;;;;;;4177173;34;20229;-63
2022/05/29 02:58:25;;;;;;;3.10;2.08;;;;;;;;;;4177130;34;20634;-63
2022/05/29 03:01:12;;;;;;;2.97;1.90;;;;;;;;;;4176027;34;20090;-63
2022/05/29 03:04:05;;;;;;;2.33;1.83;;;;;;;;;;4177148;34;20209;-62
2022/05/29 03:06:48;;;;;;;1.65;1.55;;;;;;;;;;4157141;34;20141;-63
2022/05/29 03:09:39;;;;;;;2.37;1.87;;;;;;;;;;4177127;34;20427;-63
2022/05/29 03:12:32;;;;;;;2.30;1.85;;;;;;;;;;4164189;34;20130;-63
2022/05/29 03:15:33;;;;;;;2.03;1.77;;;;;;;;;;4176970;34;20091;-63
2022/05/29 03:18:35;;;;;;;1.92;1.77;;;;;;;;;;4186979;34;20121;-63
2022/05/29 03:21:20;;;;;;;3.45;2.20;;;;;;;;;;4154396;34;20115;-62
2022/05/29 03:23:52;;;;;;;2.30;1.85;;;;;;;;;;4175860;34;20114;-62
2022/05/29 03:26:26;;;;;;;4.90;1.70;;;;;;;;;;4177060;34;20118;-62
2022/05/29 03:29:03;;;;;;;2.20;2.00;;;;;;;;;;4176853;34;20118;-62
2022/05/29 03:31:30;;;;;;;2.95;1.73;;;;;;;;;;4175512;34;20194;-62
2022/05/29 03:33:57;;;;;;;2.87;2.00;;;;;;;;;;4176754;34;20278;-64
2022/05/29 03:36:25;;;;;;;2.72;1.80;;;;;;;;;;4176876;34;20118;-62
2022/05/29 03:38:51;;;;;;;3.25;1.70;;;;;;;;;;4176865;34;20538;-62
2022/05/29 03:41:39;;;;;;;2.22;1.60;;;;;;;;;;4177014;34;20119;-62
2022/05/29 03:44:06;;;;;;;1.75;1.65;;;;;;;;;;4176660;34;20217;-61
2022/05/29 03:46:32;;;;;;;5.60;1.80;;;;;;;;;;4176791;34;20508;-61
2022/05/29 03:48:58;;;;;;;3.87;2.25;;;;;;;;;;4175307;34;20173;-61
2022/05/29 03:51:24;;;;;;;1.92;1.70;;;;;;;;;;4176787;34;20123;-60
2022/05/29 03:53:50;;;;;;;3.67;1.80;;;;;;;;;;4176734;34;20200;-62
2022/05/29 03:56:16;;;;;;;4.40;1.62;;;;;;;;;;4175212;34;20125;-63
2022/05/29 03:58:42;;;;;;;6.47;1.70;;;;;;;;;;4176592;34;20527;-63
2022/05/29 04:01:08;;;;;;;6.57;1.73;;;;;;;;;;4176184;34;20616;-62
2022/05/29 04:03:35;;;;;;;4.20;1.70;;;;;;;;;;4176603;34;20129;-63
2022/05/29 04:06:01;;;;;;;4.07;1.73;;;;;;;;;;4176537;34;20214;-62
2022/05/29 04:13:57;;;;;;;3.20;1.50;;;;;;;;;;4175629;34;20110;-62
2022/05/29 04:16:23;;;;;;;2.60;1.37;;;;;;;;;;4176441;34;20190;-61
2022/05/29 04:18:49;;;;;;;2.87;1.60;;;;;;;;;;4176289;34;20134;-61
2022/05/29 04:21:15;;;;;;;3.45;1.67;;;;;;;;;;4176287;34;20565;-61
2022/05/29 04:23:41;;;;;;;1.70;1.60;;;;;;;;;;4176611;34;20111;-61
2022/05/29 04:26:08;;;;;;;2.15;1.70;;;;;;;;;;4176385;34;20121;-61
2022/05/29 04:28:34;;;;;;;2.00;1.58;;;;;;;;;;4176265;34;20110;-62
2022/05/29 04:31:00;;;;;;;4.75;2.08;;;;;;;;;;4176328;34;20451;-61
2022/05/29 04:33:26;;;;;;;6.47;2.10;;;;;;;;;;4176154;34;20130;-62
2022/05/29 04:35:53;;;;;;;8.45;1.87;;;;;;;;;;4176248;34;20603;-61
2022/05/29 04:38:20;;;;;;;3.50;1.60;;;;;;;;;;4176164;34;20126;-62
2022/05/29 04:40:47;;;;;;;1.70;1.42;;;;;;;;;;4176137;34;20174;-59
2022/05/29 04:43:13;;;;;;;3.33;1.65;;;;;;;;;;4176049;34;20115;-59
2022/05/29 04:45:41;;;;;;;2.55;1.67;;;;;;;;;;4176072;34;20189;-60
2022/05/29 04:48:07;;;;;;;2.97;2.12;;;;;;;;;;4176223;34;20125;-59
2022/05/29 04:50:33;;;;;;;4.37;1.85;;;;;;;;;;4176232;34;20110;-61
2022/05/29 04:52:59;;;;;;;3.80;1.80;;;;;;;;;;4174569;34;20528;-62
2022/05/29 04:55:25;;;;;;;4.30;1.45;;;;;;;;;;4176077;34;20134;-59
2022/05/29 04:57:51;;;;;;;3.37;1.80;;;;;;;;;;4175958;34;20108;-63
2022/05/29 05:00:18;;;;;;;3.30;1.83;;;;;;;;;;4175872;34;20660;-61
2022/05/29 05:02:44;;;;;;;6.03;1.60;;;;;;;;;;4175887;34;20099;-60
2022/05/29 05:05:11;;;;;;;1.75;1.45;;;;;;;;;;4176129;34;20138;-61
2022/05/29 05:07:37;;;;;;;2.65;1.50;;;;;;;;;;4175815;34;20526;-61
2022/05/29 05:10:05;;;;;;;2.42;1.48;;;;;;;;;;4175731;34;20127;-60
2022/05/29 05:12:31;;;;;;;4.68;1.50;;;;;;;;;;4177102;34;20576;-61
2022/05/29 05:14:57;;;;;;;2.47;1.48;;;;;;;;;;4178015;34;20409;-59
2022/05/29 05:17:23;;;;;;;3.08;1.60;;;;;;;;;;4177940;34;20135;-60
2022/05/29 05:19:48;;;;;;;1.95;1.27;;;;;;;;;;4178046;34;20519;-58
2022/05/29 05:22:14;;;;;;;2.12;1.35;;;;;;;;;;4178012;34;20499;-59
2022/05/29 05:24:41;;;;;;;6.80;1.90;;;;;;;;;;4177999;34;20438;-60
2022/05/29 05:27:08;;;;;;;2.05;1.20;;;;;;;;;;4165171;34;20118;-60
2022/05/29 05:29:34;;;;;;;2.42;1.65;;;;;;;;;;4177887;34;20106;-59
2022/05/29 05:32:00;;;;;;;3.10;1.80;;;;;;;;;;4178243;34;20203;-60
2022/05/29 05:34:27;;;;;;;3.10;1.40;;;;;;;;;;4178120;34;20295;-64
2022/05/29 05:36:54;;;;;;;4.57;1.87;;;;;;;;;;4176514;34;20118;-65
2022/05/29 05:39:20;;;;;;;2.50;1.52;;;;;;;;;;4177785;34;20210;-64
2022/05/29 05:41:47;;;;;;;4.50;1.45;;;;;;;;;;4178020;34;20210;-65
2022/05/29 05:44:13;;;;;;;7.20;2.05;;;;;;;;;;4177690;34;20218;-62
2022/05/29 05:46:53;;;;;;;2.47;1.75;;;;;;;;;;4176339;34;20301;-62
2022/05/29 05:49:20;;;;;;;4.00;1.73;;;;;;;;;;4175782;34;20126;-63
2022/05/29 05:51:46;;;;;;;6.03;2.15;;;;;;;;;;4177461;34;20515;-62
2022/05/29 05:54:13;;;;;;;4.40;1.58;;;;;;;;;;4177523;34;20121;-62
2022/05/29 05:56:47;;;;;;;3.90;1.70;;;;;;;;;;4177577;34;20107;-63
2022/05/29 05:59:16;;;;;;;4.37;2.03;;;;;;;;;;4177722;34;20600;-63
2022/05/29 06:01:43;;;;;;;4.05;1.87;;;;;;;;;;4165112;34;20109;-62
2022/05/29 06:04:09;;;;;;;5.80;1.87;;;;;;;;;;4177646;34;20567;-63
2022/05/29 06:06:34;;;;;;;2.87;1.70;;;;;;;;;;4177603;34;20115;-62
2022/05/29 06:09:07;;;;;;;9.27;1.52;;;;;;;;;;4177309;34;20302;-62
2022/05/29 06:11:33;;;;;;;1.95;1.50;;;;;;;;;;4177460;34;20182;-63
2022/05/29 06:14:00;;;;;;;3.03;1.67;;;;;;;;;;4177505;34;20466;-62
2022/05/29 06:16:26;;;;;;;5.03;2.00;;;;;;;;;;4177540;34;20202;-62
2022/05/29 06:18:52;;;;;;;5.07;2.30;;;;;;;;;;4177469;34;20110;-61
2022/05/29 06:21:18;;;;;;;3.15;1.95;;;;;;;;;;4177523;34;20152;-61
2022/05/29 06:23:46;;;;;;;3.60;2.35;;;;;;;;;;4177175;34;20134;-62
2022/05/29 06:26:13;;;;;;;4.50;2.70;;;;;;;;;;4177420;34;20551;-62
2022/05/29 06:28:40;;;;;;;7.25;2.50;;;;;;;;;;4177401;34;20102;-63
2022/05/29 06:31:07;;;;;;;6.55;2.80;;;;;;;;;;4177315;34;20110;-61
2022/05/29 06:33:34;;;;;;;2.50;2.30;;;;;;;;;;4177264;34;20094;-61
2022/05/29 06:36:14;;;;;;;5.65;2.28;;;;;;;;;;4177248;34;20125;-62
2022/05/29 06:38:41;;;;;;;8.10;2.50;;;;;;;;;;4176102;34;20206;-63
2022/05/29 06:41:09;;;;;;;4.37;2.15;;;;;;;;;;4177282;34;20404;-63
2022/05/29 06:43:36;;;;;;;3.12;2.67;;;;;;;;;;4177235;34;20123;-63
2022/05/29 06:46:03;;;;;;;2.22;1.80;;;;;;;;;;4177261;34;20114;-63
2022/05/29 06:48:31;;;;;;;6.50;1.80;;;;;;;;;;4177211;34;20515;-62
2022/05/29 06:51:02;;;;;;;3.50;1.90;;;;;;;;;;4177304;34;20141;-63
2022/05/29 06:53:28;;;;;;;4.47;1.83;;;;;;;;;;4177205;34;20113;-62
2022/05/29 06:55:55;;;;;;;7.07;1.83;;;;;;;;;;4177381;34;20462;-63
2022/05/29 06:58:22;;;;;;;1.62;1.25;;;;;;;;;;4177252;34;20193;-62
2022/05/29 07:09:13;;;;;;;7.28;2.75;;;;;;;;;;4176899;34;20547;-64
2022/05/29 07:11:44;;;;;;;5.30;1.90;;;;;;;;;;4177425;34;20083;-63
2022/05/29 07:14:10;;;;;;;1.12;1.10;;;;;;;;;;4175842;34;20190;-62
2022/05/29 07:16:37;;;;;;;2.33;1.67;;;;;;;;;;4175843;34;20122;-61
2022/05/29 07:19:04;;;;;;;5.35;1.85;;;;;;;;;;4177004;34;20209;-62
2022/05/29 07:21:41;;;;;;;3.87;1.60;;;;;;;;;;4176936;34;20105;-63
2022/05/29 07:24:08;;;;;;;4.37;1.55;;;;;;;;;;4177039;34;20234;-62
2022/05/29 07:26:35;;;;;;;3.25;1.60;;;;;;;;;;4177135;34;20126;-62
2022/05/29 07:29:04;;;;;;;6.45;1.60;;;;;;;;;;4176901;34;20122;-63
2022/05/29 07:31:30;;;;;;;4.45;1.60;;;;;;;;;;4176982;34;20194;-63
2022/05/29 07:33:57;;;;;;;5.43;1.70;;;;;;;;;;4176240;34;20211;-61
2022/05/29 07:36:26;;;;;;;2.25;1.80;;;;;;;;;;4176705;34;20098;-62
2022/05/29 07:38:53;;;;;;;4.10;1.87;;;;;;;;;;4164050;34;20185;-63
2022/05/29 07:44:05;;;;;;;3.17;1.40;;;;;;;;;;4176613;34;20456;-62
2022/05/29 07:46:32;;;;;;;9.63;1.85;;;;;;;;;;4176949;34;20122;-61
2022/05/29 07:48:58;;;;;;;9.75;1.87;;;;;;;;;;4176669;34;20121;-62
2022/05/29 07:51:24;;;;;;;2.17;1.30;;;;;;;;;;4176647;34;20122;-63
2022/05/29 07:53:50;;;;;;;4.43;1.52;;;;;;;;;;4176533;34;20110;-62
2022/05/29 07:56:16;;;;;;;2.40;1.40;;;;;;;;;;4176880;34;20153;-63
2022/05/29 07:58:43;;;;;;;1.60;1.50;;;;;;;;;;4176731;34;20102;-63
2022/05/29 08:01:11;;;;;;;4.43;2.25;;;;;;;;;;4176614;34;20603;-62
2022/05/29 08:03:38;;;;;;;4.35;1.67;;;;;;;;;;4175120;34;20497;-64
2022/05/29 08:06:04;;;;;;;2.58;1.30;;;;;;;;;;4176524;34;20119;-66
2022/05/29 08:08:33;;;;;;;5.45;1.50;;;;;;;;;;4175149;34;20106;-66
2022/05/29 08:11:01;;;;;;;2.53;1.60;;;;;;;;;;4175050;34;20106;-66
2022/05/29 08:13:28;;;;;;;2.83;1.70;;;;;;;;;;4176594;34;20611;-66
2022/05/29 08:15:55;;;;;;;1.55;1.45;;;;;;;;;;4176628;34;20400;-63
2022/05/29 08:18:22;;;;;;;3.28;1.50;;;;;;;;;;4176476;34;20504;-64
2022/05/29 08:20:48;;;;;;;3.85;1.60;;;;;;;;;;4176419;34;20447;-64
2022/05/29 08:23:14;;;;;;;3.78;1.58;;;;;;;;;;4176222;34;20186;-64
2022/05/29 08:31:09;;;;;;;3.05;1.27;;;;;;;;;;4176460;34;20113;-64
2022/05/29 08:33:37;;;;;;;2.37;1.67;;;;;;;;;;4176070;34;20589;-65
2022/05/29 08:36:24;;;;;;;2.08;1.55;;;;;;;;;;4176153;34;20120;-65
2022/05/29 08:38:52;;;;;;;3.60;1.80;;;;;;;;;;4176187;34;20099;-65
2022/05/29 08:41:43;;;;;;;4.80;1.70;;;;;;;;;;4176294;34;20103;-63
2022/05/29 08:44:22;;;;;;;4.75;1.55;;;;;;;;;;4174804;34;20137;-64
2022/05/29 08:46:52;;;;;;;8.75;2.95;;;;;;;;;;4176500;34;20423;-64
2022/05/29 08:49:26;;;;;;;3.92;2.25;;;;;;;;;;4177040;34;20114;-64
2022/05/29 08:52:19;;;;;;;5.28;1.30;;;;;;;;;;4165469;34;20105;-64
2022/05/29 08:55:10;;;;;;;1.60;1.50;;;;;;;;;;4176864;34;20109;-63
2022/05/29 08:58:15;;;;;;;1.87;1.40;;;;;;;;;;4173287;34;20110;-64
2022/05/29 09:01:04;;;;;;;3.90;1.50;;;;;;;;;;4177886;34;20534;-63
2022/05/29 09:03:59;;;;;;;3.15;2.10;;;;;;;;;;4176812;34;20645;-63
2022/05/29 09:06:40;;;;;;;3.05;1.62;;;;;;;;;;4176816;34;20101;-64
2022/05/29 09:09:19;;;;;;;4.37;1.35;;;;;;;;;;4176636;34;20543;-65
2022/05/29 09:11:52;;;;;;;5.97;1.90;;;;;;;;;;4177980;34;20441;-64
2022/05/29 09:14:24;;;;;;;3.78;2.70;;;;;;;;;;4176755;34;20546;-63
2022/05/29 09:17:19;;;;;;;18.42;4.03;;;;;;;;;;4177974;34;20479;-64
2022/05/29 09:19:48;;;;;;;5.20;1.50;;;;;;;;;;4160038;34;20133;-64
2022/05/29 09:22:31;;;;;;;3.53;1.55;;;;;;;;;;4176349;34;20098;-64
2022/05/29 09:25:03;;;;;;;3.65;2.10;;;;;;;;;;4178004;34;20114;-64
2022/05/29 09:27:31;;;;;;;3.05;2.10;;;;;;;;;;4176490;34;20474;-65
2022/05/29 09:29:57;;;;;;;5.15;1.80;;;;;;;;;;4176649;34;20591;-64
2022/05/29 09:32:26;;;;;;;6.20;2.50;;;;;;;;;;4177944;34;20124;-64
2022/05/29 09:35:01;;;;;;;3.58;1.85;;;;;;;;;;4177860;34;20129;-64
2022/05/29 09:37:33;;;;;;;4.72;1.83;;;;;;;;;;4177775;34;20192;-64
2022/05/29 09:40:00;;;;;;;5.07;1.70;;;;;;;;;;4176673;34;20111;-63
2022/05/29 09:42:38;;;;;;;3.33;2.10;;;;;;;;;;4176220;34;20148;-64
2022/05/29 09:45:14;;;;;;;2.17;1.85;;;;;;;;;;4177904;34;20187;-65
2022/05/29 09:50:56;;;;;;;3.65;1.60;;;;;;;;;;4176305;34;20514;-64
2022/05/29 09:53:29;;;;;;;5.80;2.00;;;;;;;;;;4177726;34;20186;-64
2022/05/29 09:56:01;;;;;;;4.55;2.05;;;;;;;;;;4177859;34;20102;-64
2022/05/29 09:58:35;;;;;;;4.78;2.50;;;;;;;;;;4177254;34;20130;-64
2022/05/29 10:01:06;;;;;;;13.05;4.93;;;;;;;;;;4177772;34;20512;-64
2022/05/29 10:03:44;;;;;;;11.30;4.32;;;;;;;;;;4176173;34;20538;-64
2022/05/29 10:06:22;;;;;;;11.55;6.25;;;;;;;;;;4177589;34;20121;-64
2022/05/29 10:08:48;;;;;;;9.77;4.60;;;;;;;;;;4177702;34;20555;-64
2022/05/29 10:11:34;;;;;;;4.35;3.08;;;;;;;;;;4176035;34;20431;-63
2022/05/29 10:14:20;;;;;;;4.05;2.20;;;;;;;;;;4177039;34;20557;-63
2022/05/29 10:16:49;;;;;;;5.95;1.65;;;;;;;;;;4176095;34;20491;-63
2022/05/29 10:19:38;;;;;;;7.68;3.85;;;;;;;;;;4177339;34;20134;-63
2022/05/29 10:22:27;;;;;;;3.92;1.92;;;;;;;;;;4177245;34;20097;-63
2022/05/29 10:24:54;;;;;;;2.00;1.48;;;;;;;;;;4187307;34;20630;-64
2022/05/29 10:27:26;;;;;;;3.60;1.85;;;;;;;;;;4175873;34;20170;-63
2022/05/29 10:30:29;;;;;;;5.80;3.53;;;;;;;;;;4175961;34;20082;-64
2022/05/29 10:33:21;;;;;;;5.93;3.75;;;;;;;;;;4141491;34;20515;-64
2022/05/29 10:35:47;;;;;;;6.78;2.75;;;;;;;;;;4176264;34;20098;-64
2022/05/29 10:38:17;;;;;;;2.40;1.90;;;;;;;;;;4177412;34;20106;-64
2022/05/29 10:40:45;;;;;;;2.80;2.12;;;;;;;;;;4177493;34;20111;-64
2022/05/29 10:43:11;;;;;;;3.78;2.03;;;;;;;;;;4177023;34;20118;-64
2022/05/29 10:45:43;;;;;;;5.87;2.67;;;;;;;;;;4177323;34;20117;-64
2022/05/29 10:48:12;;;;;;;6.87;2.70;;;;;;;;;;4175970;34;20200;-64
2022/05/29 10:50:59;;;;;;;5.05;1.90;;;;;;;;;;4177062;34;20205;-64
2022/05/29 10:53:27;;;;;;;4.32;1.75;;;;;;;;;;4177102;34;20472;-64
2022/05/29 10:56:21;;;;;;;5.82;1.75;;;;;;;;;;4175898;34;20125;-64
2022/05/29 10:59:08;;;;;;;5.05;2.15;;;;;;;;;;4177249;34;20122;-64
2022/05/29 11:04:45;;;;;;;12.07;3.17;;;;;;;;;;4177286;34;20220;-64
2022/05/29 11:07:29;;;;;;;10.55;3.03;;;;;;;;;;4176938;34;20519;-63
2022/05/29 11:10:24;;;;;;;5.47;3.90;;;;;;;;;;4175991;34;20106;-64
2022/05/29 11:13:21;;;;;;;12.43;6.53;;;;;;;;;;4139164;34;20112;-64
2022/05/29 11:16:08;;;;;;;21.60;10.93;;;;;;;;;;4177087;34;20118;-63
2022/05/29 11:18:46;;;;;;;9.98;4.87;;;;;;;;;;4177085;34;20110;-64
2022/05/29 11:21:12;;;;;;;3.87;3.30;;;;;;;;;;4177080;34;20523;-64
2022/05/29 11:23:54;;;;;;;7.00;2.67;;;;;;;;;;4176605;34;20094;-64
2022/05/29 11:26:30;;;;;;;9.93;4.25;;;;;;;;;;4176905;34;20209;-64
2022/05/29 11:29:08;;;;;;;10.77;4.30;;;;;;;;;;4175412;34;20115;-65
2022/05/29 11:31:46;;;;;;;6.95;3.00;;;;;;;;;;4177062;34;20114;-64
2022/05/29 11:34:32;;;;;;;4.95;3.10;;;;;;;;;;4176485;34;20134;-64
2022/05/29 11:37:25;;;;;;;23.52;6.03;;;;;;;;;;4164305;34;20098;-64
2022/05/29 11:39:54;;;;;;;4.07;2.22;;;;;;;;;;4176835;34;20425;-63
2022/05/29 11:42:28;;;;;;;3.67;2.00;;;;;;;;;;4176823;34;20129;-63
2022/05/29 11:45:11;;;;;;;3.47;1.67;;;;;;;;;;4175521;34;20526;-62
2022/05/29 11:51:15;;;;;;;5.82;3.00;;;;;;;;;;4175553;34;20127;-62
2022/05/29 11:54:24;;;;;;;8.95;6.90;;;;;;;;;;4176697;34;20222;-64
2022/05/29 11:57:00;;;;;;;10.93;5.62;;;;;;;;;;4153053;34;20210;-64
2022/05/29 11:59:42;;;;;;;11.77;5.15;;;;;;;;;;4176569;34;20121;-64
2022/05/29 12:02:23;;;;;;;9.27;6.18;;;;;;;;;;4176832;34;20481;-64
2022/05/29 12:04:57;;;;;;;8.90;5.45;;;;;;;;;;4176599;34;20462;-64
2022/05/29 12:07:29;;;;;;;5.90;3.08;;;;;;;;;;4175040;34;20117;-65
2022/05/29 12:10:01;;;;;;;3.33;1.98;;;;;;;;;;4175300;34;20118;-65
2022/05/29 12:12:38;;;;;;;4.82;2.70;;;;;;;;;;4174617;34;20273;-64
2022/05/29 12:15:10;;;;;;;9.93;6.28;;;;;;;;;;4176499;34;20118;-65
2022/05/29 12:17:35;;;;;;;16.77;9.68;;;;;;;;;;4174968;34;20112;-64
2022/05/29 12:20:04;;;;;;;15.35;6.53;;;;;;;;;;4175906;34;20098;-63
2022/05/29 12:22:36;;;;;;;10.98;4.78;;;;;;;;;;4178490;34;20114;-63
2022/05/29 12:25:03;;;;;;;5.15;2.80;;;;;;;;;;4176514;34;20202;-63
2022/05/29 12:27:29;;;;;;;9.02;4.03;;;;;;;;;;4173346;34;20576;-65
2022/05/29 12:30:05;;;;;;;6.43;2.78;;;;;;;;;;4164354;34;20122;-63
2022/05/29 12:32:35;;;;;;;4.90;2.67;;;;;;;;;;4163174;34;20193;-64
2022/05/29 12:35:16;;;;;;;6.43;2.08;;;;;;;;;;4150660;34;20106;-62
2022/05/29 12:37:56;;;;;;;6.57;3.33;;;;;;;;;;4163426;34;20480;-64
2022/05/29 12:41:12;;;;;;;5.68;3.97;;;;;;;;;;4163422;34;20314;-64
2022/05/29 12:44:00;;;;;;;6.72;3.15;;;;;;;;;;4150991;34;20187;-63
2022/05/29 12:46:39;;;;;;;7.60;3.08;;;;;;;;;;4149793;34;20103;-64
2022/05/29 12:49:39;;;;;;;8.95;3.95;;;;;;;;;;4159588;34;20123;-64
2022/05/29 12:52:20;;;;;;;6.12;4.75;;;;;;;;;;4150045;34;20121;-63
2022/05/29 12:55:17;;;;;;;6.12;2.72;;;;;;;;;;4149875;34;20123;-64
2022/05/29 12:57:53;;;;;;;3.10;2.15;;;;;;;;;;4163306;34;20117;-63
2022/05/29 13:00:47;;;;;;;2.37;1.92;;;;;;;;;;4163482;34;20503;-64
2022/05/29 13:03:28;;;;;;;1.25;1.20;;;;;;;;;;4164479;34;20471;-64
2022/05/29 13:06:27;;;;;;;3.45;2.05;;;;;;;;;;4163068;34;20115;-62
2022/05/29 13:09:28;;;;;;;2.40;1.90;;;;;;;;;;4164730;34;20185;-64
2022/05/29 13:12:00;;;;;;;3.70;2.85;;;;;;;;;;4164449;34;20715;-62
2022/05/29 13:14:27;;;;;;;3.90;2.40;;;;;;;;;;4162648;34;20131;-66
2022/05/29 13:17:24;;;;;;;3.42;2.33;;;;;;;;;;4164419;34;20125;-65
2022/05/29 13:19:56;;;;;;;3.47;2.62;;;;;;;;;;4164257;34;20804;-63
2022/05/29 13:22:50;;;;;;;3.70;2.33;;;;;;;;;;4164231;34;20126;-63
2022/05/29 13:25:19;;;;;;;11.07;2.28;;;;;;;;;;4164376;34;20440;-63
2022/05/29 13:27:46;;;;;;;2.30;2.00;;;;;;;;;;4164278;34;20134;-62
2022/05/29 13:30:58;;;;;;;9.35;2.05;;;;;;;;;;4164194;34;20110;-65
2022/05/29 13:33:27;;;;;;;6.97;2.22;;;;;;;;;;4163788;34;20122;-64
2022/05/29 13:35:53;;;;;;;2.72;2.20;;;;;;;;;;4164508;34;20111;-65
2022/05/29 13:38:44;;;;;;;5.22;2.15;;;;;;;;;;4162953;34;20280;-63
2022/05/29 13:41:31;;;;;;;7.65;2.15;;;;;;;;;;4164454;34;20111;-66
2022/05/29 13:44:27;;;;;;;6.95;2.22;;;;;;;;;;4174213;34;20526;-63
2022/05/29 13:47:18;;;;;;;9.73;2.03;;;;;;;;;;4163088;34;20110;-65
2022/05/29 13:50:18;;;;;;;4.70;2.20;;;;;;;;;;4164164;34;20107;-65
2022/05/29 13:52:49;;;;;;;3.60;2.35;;;;;;;;;;4163090;34;20452;-64
2022/05/29 13:55:25;;;;;;;5.40;2.42;;;;;;;;;;4164295;34;20204;-64
2022/05/29 14:04:29;;;;;;;5.07;1.83;;;;;;;;;;4164208;34;20207;-64
2022/05/29 14:07:13;;;;;;;3.72;2.37;;;;;;;;;;4164344;34;20183;-65
2022/05/29 14:09:49;;;;;;;7.47;2.30;;;;;;;;;;4162836;34;20123;-65
2022/05/29 14:12:48;;;;;;;5.87;2.35;;;;;;;;;;4164118;34;20119;-64
2022/05/29 14:15:44;;;;;;;3.30;1.75;;;;;;;;;;4163919;34;20130;-64
2022/05/29 14:18:13;;;;;;;3.67;1.92;;;;;;;;;;4163920;34;20500;-65
2022/05/29 14:21:06;;;;;;;3.87;1.70;;;;;;;;;;4162718;34;20219;-66
2022/05/29 14:24:13;;;;;;;4.32;1.80;;;;;;;;;;4162670;34;20114;-64
2022/05/29 14:26:57;;;;;;;6.62;2.03;;;;;;;;;;4164154;34;20130;-66
2022/05/29 14:29:56;;;;;;;6.55;2.65;;;;;;;;;;4163855;34;20189;-67
2022/05/29 14:32:34;;;;;;;3.40;2.10;;;;;;;;;;4150319;34;20125;-65
2022/05/29 14:35:18;;;;;;;2.00;1.85;;;;;;;;;;4161761;34;20199;-64
2022/05/29 14:37:58;;;;;;;4.47;2.25;;;;;;;;;;4161945;34;20226;-65
2022/05/29 14:40:41;;;;;;;4.00;1.90;;;;;;;;;;4163343;34;20087;-66
2022/05/29 14:43:13;;;;;;;3.03;2.05;;;;;;;;;;4162192;34;20118;-65
2022/05/29 14:45:42;;;;;;;3.65;1.87;;;;;;;;;;4160700;34;20079;-64
2022/05/29 14:48:21;;;;;;;7.03;3.30;;;;;;;;;;4163064;34;20516;-65
2022/05/29 14:50:56;;;;;;;5.43;3.10;;;;;;;;;;4161879;34;20106;-64
2022/05/29 14:53:28;;;;;;;;;;;;;;;;;;4161965;34;20129;-66
2022/05/29 14:55:58;;;;;;;4.90;3.53;;;;;;;;;;4161680;34;20385;-65
2022/05/29 14:58:30;;;;;;;8.38;4.12;;;;;;;;;;4161775;34;20106;-66
2022/05/29 15:00:58;;;;;;;9.65;3.50;;;;;;;;;;4163547;34;20102;-66
2022/05/29 15:03:27;;;;;;;5.87;3.55;;;;;;;;;;4162114;34;20137;-64
2022/05/29 15:05:58;;;;;;;6.18;4.07;;;;;;;;;;4163420;34;20114;-63
2022/05/29 15:11:24;;;;;;;5.22;2.78;;;;;;;;;;4163441;34;20464;-70
2022/05/29 15:14:01;;;;;;;5.97;2.75;;;;;;;;;;4162708;34;20111;-65
2022/05/29 15:16:33;;;;;;;5.45;2.53;;;;;;;;;;4162206;34;20107;-66
2022/05/29 15:19:17;;;;;;;5.28;2.40;;;;;;;;;;4163231;34;20126;-66
2022/05/29 15:24:39;;;;;;;2.67;2.03;;;;;;;;;;4157546;34;20209;-63
2022/05/29 15:27:10;;;;;;;2.83;2.10;;;;;;;;;;4157448;34;20117;-64
2022/05/29 15:29:45;;;;;;;3.78;1.92;;;;;;;;;;4157713;34;20141;-63
2022/05/29 15:32:28;;;;;;;3.70;2.40;;;;;;;;;;4159228;34;20115;-64
2022/05/29 15:35:14;;;;;;;3.17;2.30;;;;;;;;;;4157509;34;20525;-64
2022/05/29 15:37:51;;;;;;;3.40;2.60;;;;;;;;;;4158522;34;20559;-64
2022/05/29 15:40:23;;;;;;;4.87;2.70;;;;;;;;;;4158909;34;20708;-62
2022/05/29 15:43:14;;;;;;;3.30;2.10;;;;;;;;;;4159059;34;20133;-64
2022/05/29 15:45:59;;;;;;;6.93;4.87;;;;;;;;;;4158670;34;20131;-64
2022/05/29 15:48:44;;;;;;;7.87;4.12;;;;;;;;;;4157332;34;20194;-63
2022/05/29 15:51:18;;;;;;;7.95;5.05;;;;;;;;;;4157002;34;20130;-64
2022/05/29 15:54:12;;;;;;;6.80;4.68;;;;;;;;;;4161758;34;20113;-63
2022/05/29 15:57:02;;;;;;;8.50;3.62;;;;;;;;;;4160976;34;20603;-64
2022/05/29 15:59:42;;;;;;;6.32;2.92;;;;;;;;;;4161543;34;20588;-63
2022/05/29 16:02:11;;;;;;;4.15;2.53;;;;;;;;;;4160981;34;20483;-64
2022/05/29 16:04:42;;;;;;;7.97;3.03;;;;;;;;;;4150254;34;20091;-64
2022/05/29 16:07:26;;;;;;;5.45;2.95;;;;;;;;;;4161434;34;20109;-64
2022/05/29 16:09:57;;;;;;;3.90;2.87;;;;;;;;;;4150411;34;20122;-64
2022/05/29 16:12:23;;;;;;;5.57;3.00;;;;;;;;;;4160551;34;20091;-63
2022/05/29 16:14:53;;;;;;;4.18;2.97;;;;;;;;;;4160217;34;20178;-64
2022/05/29 16:17:31;;;;;;;3.87;3.05;;;;;;;;;;4162079;34;20118;-64
2022/05/29 16:20:35;;;;;;;7.70;2.37;;;;;;;;;;4160134;34;20114;-64
2022/05/29 16:23:22;;;;;;;3.83;2.33;;;;;;;;;;4160066;34;20148;-63
2022/05/29 16:26:00;;;;;;;7.25;2.35;;;;;;;;;;4160590;34;20127;-64
2022/05/29 16:28:40;;;;;;;3.00;2.65;;;;;;;;;;4158568;34;20125;-61
2022/05/29 16:31:11;;;;;;;5.85;2.70;;;;;;;;;;4157611;34;20347;-63
2022/05/29 16:33:41;;;;;;;5.40;3.20;;;;;;;;;;4156178;34;20142;-62
2022/05/29 16:36:22;;;;;;;5.68;3.47;;;;;;;;;;4156292;34;20714;-63
2022/05/29 16:50:28;;;;;;;4.15;2.42;;;;;;;;;;4161251;34;20107;-65
2022/05/29 16:53:15;;;;;;;3.70;2.10;;;;;;;;;;4160056;34;20091;-67
2022/05/29 16:55:48;;;;;;;4.87;2.20;;;;;;;;;;4170750;34;20126;-64